createdAt,value
2018-11-11T00:00:53.886Z,995.9
2018-11-11T00:01:53.833Z,995.94
2018-11-11T00:02:53.816Z,995.97
2018-11-11T00:03:53.809Z,995.92
2018-11-11T00:04:53.798Z,995.88
2018-11-11T00:05:53.770Z,995.87
2018-11-11T00:06:53.768Z,995.86
2018-11-11T00:07:53.752Z,995.86
2018-11-11T00:08:53.813Z,995.83
2018-11-11T00:09:53.709Z,995.81
2018-11-11T00:10:53.714Z,995.88
2018-11-11T00:11:53.680Z,995.85
2018-11-11T00:12:53.679Z,995.84
2018-11-11T00:13:53.647Z,995.79
2018-11-11T00:14:53.633Z,995.73
2018-11-11T00:15:53.615Z,995.79
2018-11-11T00:16:53.607Z,995.81
2018-11-11T00:17:53.589Z,995.85
2018-11-11T00:18:53.588Z,995.83
2018-11-11T00:19:53.555Z,995.84
2018-11-11T00:20:53.541Z,995.88
2018-11-11T00:21:53.635Z,995.9
2018-11-11T00:22:53.509Z,995.91
2018-11-11T00:23:53.494Z,995.91
2018-11-11T00:24:53.482Z,995.89
2018-11-11T00:25:53.463Z,995.9
2018-11-11T00:26:53.455Z,995.86
2018-11-11T00:27:53.432Z,995.86
2018-11-11T00:28:53.418Z,995.84
2018-11-11T00:29:53.402Z,995.86
2018-11-11T00:30:53.386Z,995.86
2018-11-11T00:31:53.368Z,995.84
2018-11-11T00:32:53.361Z,995.81
2018-11-11T00:33:53.343Z,995.8
2018-11-11T00:34:53.362Z,995.82
2018-11-11T00:35:53.318Z,995.84
2018-11-11T00:36:53.292Z,995.82
2018-11-11T00:37:53.279Z,995.81
2018-11-11T00:38:53.261Z,995.82
2018-11-11T00:39:53.250Z,995.78
2018-11-11T00:40:53.233Z,995.85
2018-11-11T00:41:53.216Z,995.82
2018-11-11T00:42:53.200Z,995.86
2018-11-11T00:43:53.184Z,995.93
2018-11-11T00:44:53.167Z,995.93
2018-11-11T00:45:53.152Z,995.89
2018-11-11T00:46:53.135Z,995.86
2018-11-11T00:47:53.122Z,995.84
2018-11-11T00:48:53.107Z,995.8
2018-11-11T00:49:53.090Z,995.88
2018-11-11T00:50:53.074Z,995.85
2018-11-11T00:51:53.060Z,995.78
2018-11-11T00:52:53.044Z,995.77
2018-11-11T00:53:53.028Z,995.75
2018-11-11T00:54:53.012Z,995.77
2018-11-11T00:55:52.997Z,995.77
2018-11-11T00:56:52.981Z,995.74
2018-11-11T00:57:52.965Z,995.83
2018-11-11T00:58:52.950Z,995.79
2018-11-11T00:59:52.932Z,995.79
2018-11-11T01:00:52.919Z,995.73
2018-11-11T01:01:52.953Z,995.78
2018-11-11T01:02:52.888Z,995.76
2018-11-11T01:03:52.873Z,995.73
2018-11-11T01:04:52.859Z,995.73
2018-11-11T01:05:52.847Z,995.67
2018-11-11T01:06:52.831Z,995.64
2018-11-11T01:07:52.808Z,995.59
2018-11-11T01:08:52.794Z,995.63
2018-11-11T01:09:52.785Z,995.65
2018-11-11T01:10:52.762Z,995.7
2018-11-11T01:11:52.749Z,995.73
2018-11-11T01:12:52.734Z,995.7
2018-11-11T01:13:52.714Z,995.77
2018-11-11T01:14:52.699Z,995.78
2018-11-11T01:15:52.686Z,995.81
2018-11-11T01:16:52.668Z,995.86
2018-11-11T01:17:52.654Z,995.81
2018-11-11T01:18:52.638Z,995.83
2018-11-11T01:19:52.624Z,995.85
2018-11-11T01:20:52.606Z,995.86
2018-11-11T01:21:52.592Z,995.89
2018-11-11T01:22:52.574Z,995.92
2018-11-11T01:23:52.558Z,995.96
2018-11-11T01:24:52.543Z,995.92
2018-11-11T01:25:52.525Z,995.93
2018-11-11T01:26:52.510Z,995.97
2018-11-11T01:27:52.495Z,996.03
2018-11-11T01:28:52.485Z,995.99
2018-11-11T01:29:52.463Z,996.03
2018-11-11T01:30:52.449Z,996.1
2018-11-11T01:31:52.434Z,996.12
2018-11-11T01:32:52.416Z,996.13
2018-11-11T01:33:52.399Z,996.17
2018-11-11T01:34:52.393Z,996.15
2018-11-11T01:35:52.368Z,996.16
2018-11-11T01:36:52.353Z,996.15
2018-11-11T01:37:52.337Z,996.12
2018-11-11T01:38:52.325Z,996.18
2018-11-11T01:39:52.305Z,996.16
2018-11-11T01:40:52.288Z,996.19
2018-11-11T01:41:52.276Z,996.14
2018-11-11T01:42:52.258Z,996.16
2018-11-11T01:43:52.252Z,996.2
2018-11-11T01:44:52.225Z,996.18
2018-11-11T01:45:52.210Z,996.17
2018-11-11T01:46:52.194Z,996.17
2018-11-11T01:47:52.177Z,996.17
2018-11-11T01:48:52.166Z,996.16
2018-11-11T01:49:52.151Z,996.16
2018-11-11T01:50:52.134Z,996.19
2018-11-11T01:51:52.114Z,996.27
2018-11-11T01:52:52.099Z,996.26
2018-11-11T01:53:52.124Z,996.25
2018-11-11T01:54:52.072Z,996.22
2018-11-11T01:55:52.304Z,996.21
2018-11-11T01:56:52.036Z,996.22
2018-11-11T01:57:52.022Z,996.2
2018-11-11T01:58:52.005Z,996.19
2018-11-11T01:59:51.988Z,996.18
2018-11-11T02:00:51.972Z,996.21
2018-11-11T02:01:51.955Z,996.2
2018-11-11T02:02:51.940Z,996.2
2018-11-11T02:03:51.925Z,996.13
2018-11-11T02:04:51.908Z,996.16
2018-11-11T02:05:51.893Z,996.14
2018-11-11T02:06:51.879Z,996.16
2018-11-11T02:07:51.862Z,996.13
2018-11-11T02:08:51.845Z,996.12
2018-11-11T02:09:51.985Z,996.14
2018-11-11T02:10:51.822Z,996.1
2018-11-11T02:11:51.801Z,996.09
2018-11-11T02:12:51.781Z,996.04
2018-11-11T02:13:51.765Z,995.99
2018-11-11T02:14:51.749Z,995.93
2018-11-11T02:15:51.738Z,996.01
2018-11-11T02:16:51.717Z,995.98
2018-11-11T02:17:51.707Z,995.97
2018-11-11T02:18:51.691Z,995.98
2018-11-11T02:19:51.673Z,995.96
2018-11-11T02:20:51.707Z,995.91
2018-11-11T02:21:51.637Z,995.84
2018-11-11T02:22:51.626Z,995.87
2018-11-11T02:23:51.606Z,995.85
2018-11-11T02:24:51.591Z,995.87
2018-11-11T02:25:51.575Z,995.85
2018-11-11T02:26:51.556Z,995.85
2018-11-11T02:27:51.541Z,995.89
2018-11-11T02:28:51.530Z,995.9
2018-11-11T02:29:51.511Z,995.92
2018-11-11T02:30:51.497Z,995.88
2018-11-11T02:31:51.477Z,995.87
2018-11-11T02:32:51.462Z,995.86
2018-11-11T02:33:51.448Z,995.85
2018-11-11T02:34:51.435Z,995.87
2018-11-11T02:35:51.413Z,995.84
2018-11-11T02:36:51.398Z,995.87
2018-11-11T02:37:51.382Z,995.94
2018-11-11T02:38:51.364Z,995.88
2018-11-11T02:39:51.353Z,995.88
2018-11-11T02:40:51.338Z,995.82
2018-11-11T02:41:51.319Z,995.84
2018-11-11T02:42:51.306Z,995.9
2018-11-11T02:43:51.288Z,995.94
2018-11-11T02:44:51.272Z,995.94
2018-11-11T02:45:51.259Z,995.91
2018-11-11T02:46:51.236Z,995.94
2018-11-11T02:47:51.229Z,995.96
2018-11-11T02:48:51.208Z,995.95
2018-11-11T02:49:51.189Z,995.92
2018-11-11T02:50:51.173Z,995.93
2018-11-11T02:51:51.157Z,995.88
2018-11-11T02:52:51.144Z,995.9
2018-11-11T02:53:51.159Z,995.92
2018-11-11T02:54:51.112Z,995.86
2018-11-11T02:55:51.094Z,995.87
2018-11-11T02:56:51.087Z,995.91
2018-11-11T02:57:51.060Z,995.85
2018-11-11T02:58:51.043Z,995.81
2018-11-11T02:59:51.033Z,995.79
2018-11-11T03:00:51.010Z,995.82
2018-11-11T03:01:50.993Z,995.8
2018-11-11T03:02:51.000Z,995.84
2018-11-11T03:03:50.963Z,995.84
2018-11-11T03:04:50.947Z,995.83
2018-11-11T03:05:50.931Z,995.78
2018-11-11T03:06:50.916Z,995.81
2018-11-11T03:07:50.901Z,995.76
2018-11-11T03:08:50.881Z,995.77
2018-11-11T03:09:50.867Z,995.77
2018-11-11T03:10:50.850Z,995.8
2018-11-11T03:11:50.835Z,995.82
2018-11-11T03:12:50.820Z,995.83
2018-11-11T03:13:50.800Z,995.79
2018-11-11T03:14:50.833Z,995.78
2018-11-11T03:15:50.772Z,995.8
2018-11-11T03:16:50.754Z,995.8
2018-11-11T03:17:50.738Z,995.83
2018-11-11T03:18:50.723Z,995.8
2018-11-11T03:19:50.705Z,995.84
2018-11-11T03:20:50.689Z,995.79
2018-11-11T03:21:50.675Z,995.81
2018-11-11T03:22:50.661Z,995.82
2018-11-11T03:23:50.641Z,995.78
2018-11-11T03:24:50.630Z,995.83
2018-11-11T03:25:50.606Z,995.78
2018-11-11T03:26:50.600Z,995.81
2018-11-11T03:27:50.577Z,995.8
2018-11-11T03:28:50.559Z,995.75
2018-11-11T03:29:50.544Z,995.8
2018-11-11T03:30:50.550Z,995.77
2018-11-11T03:31:50.578Z,995.76
2018-11-11T03:32:50.704Z,995.81
2018-11-11T03:33:50.712Z,995.82
2018-11-11T03:34:50.528Z,995.85
2018-11-11T03:35:50.507Z,995.92
2018-11-11T03:36:50.608Z,995.93
2018-11-11T03:37:50.478Z,995.93
2018-11-11T03:38:50.405Z,995.94
2018-11-11T03:39:50.383Z,995.97
2018-11-11T03:40:50.365Z,995.93
2018-11-11T03:41:50.351Z,995.89
2018-11-11T03:42:50.336Z,995.97
2018-11-11T03:43:50.319Z,995.9
2018-11-11T03:44:50.303Z,995.91
2018-11-11T03:45:50.300Z,995.96
2018-11-11T03:46:50.275Z,995.92
2018-11-11T03:47:50.253Z,995.96
2018-11-11T03:48:50.238Z,995.96
2018-11-11T03:49:50.222Z,995.96
2018-11-11T03:50:50.209Z,995.91
2018-11-11T03:51:50.193Z,995.94
2018-11-11T03:52:50.185Z,995.9
2018-11-11T03:53:50.159Z,995.85
2018-11-11T03:54:50.142Z,995.88
2018-11-11T03:55:50.126Z,995.82
2018-11-11T03:56:50.111Z,995.83
2018-11-11T03:57:50.095Z,995.81
2018-11-11T03:58:50.092Z,995.78
2018-11-11T03:59:50.062Z,995.81
2018-11-11T04:00:50.045Z,995.86
2018-11-11T04:01:50.032Z,995.88
2018-11-11T04:02:50.013Z,995.9
2018-11-11T04:03:50.005Z,995.87
2018-11-11T04:04:49.984Z,995.94
2018-11-11T04:05:49.971Z,995.92
2018-11-11T04:06:49.953Z,995.95
2018-11-11T04:07:49.937Z,995.97
2018-11-11T04:08:49.920Z,995.92
2018-11-11T04:09:49.909Z,995.92
2018-11-11T04:10:49.887Z,995.88
2018-11-11T04:11:49.868Z,995.86
2018-11-11T04:12:49.859Z,995.83
2018-11-11T04:13:49.847Z,995.88
2018-11-11T04:14:49.823Z,995.85
2018-11-11T04:15:49.809Z,995.89
2018-11-11T04:16:49.789Z,995.85
2018-11-11T04:17:49.772Z,995.9
2018-11-11T04:18:49.763Z,995.9
2018-11-11T04:19:49.751Z,995.88
2018-11-11T04:20:49.725Z,995.99
2018-11-11T04:21:49.709Z,996
2018-11-11T04:22:49.699Z,996.05
2018-11-11T04:23:49.675Z,996.05
2018-11-11T04:24:49.659Z,995.97
2018-11-11T04:25:49.644Z,995.96
2018-11-11T04:26:49.628Z,995.99
2018-11-11T04:27:49.612Z,995.88
2018-11-11T04:28:49.599Z,995.86
2018-11-11T04:29:49.580Z,995.89
2018-11-11T04:30:49.571Z,995.91
2018-11-11T04:31:49.547Z,995.89
2018-11-11T04:32:49.532Z,995.89
2018-11-11T04:33:49.515Z,995.83
2018-11-11T04:34:49.500Z,995.87
2018-11-11T04:35:49.482Z,995.82
2018-11-11T04:36:49.470Z,995.84
2018-11-11T04:37:49.450Z,995.78
2018-11-11T04:38:49.436Z,995.8
2018-11-11T04:39:49.418Z,995.88
2018-11-11T04:40:49.400Z,995.87
2018-11-11T04:41:49.390Z,995.94
2018-11-11T04:42:49.371Z,995.96
2018-11-11T04:43:49.353Z,995.98
2018-11-11T04:44:49.339Z,995.91
2018-11-11T04:45:49.323Z,995.91
2018-11-11T04:46:49.304Z,995.99
2018-11-11T04:47:49.290Z,996
2018-11-11T04:48:49.275Z,995.96
2018-11-11T04:49:49.258Z,995.99
2018-11-11T04:50:49.241Z,996.01
2018-11-11T04:51:49.428Z,996
2018-11-11T04:52:49.211Z,996.04
2018-11-11T04:53:49.192Z,995.97
2018-11-11T04:54:49.176Z,995.94
2018-11-11T04:55:49.161Z,995.87
2018-11-11T04:56:49.154Z,995.94
2018-11-11T04:57:49.128Z,995.87
2018-11-11T04:58:49.117Z,995.81
2018-11-11T04:59:49.099Z,995.9
2018-11-11T05:00:49.082Z,995.93
2018-11-11T05:01:49.070Z,995.93
2018-11-11T05:02:49.060Z,995.94
2018-11-11T05:03:49.030Z,995.97
2018-11-11T05:04:49.087Z,995.95
2018-11-11T05:05:48.997Z,995.92
2018-11-11T05:06:48.980Z,995.91
2018-11-11T05:07:48.974Z,995.97
2018-11-11T05:08:48.949Z,995.98
2018-11-11T05:09:48.934Z,995.98
2018-11-11T05:10:48.922Z,995.93
2018-11-11T05:11:48.901Z,995.96
2018-11-11T05:12:48.887Z,995.93
2018-11-11T05:13:48.867Z,995.96
2018-11-11T05:14:48.852Z,995.96
2018-11-11T05:15:48.842Z,995.92
2018-11-11T05:16:48.823Z,995.95
2018-11-11T05:17:48.803Z,995.99
2018-11-11T05:18:48.797Z,995.92
2018-11-11T05:19:48.772Z,995.99
2018-11-11T05:20:48.754Z,995.95
2018-11-11T05:21:48.814Z,995.91
2018-11-11T05:22:48.724Z,995.89
2018-11-11T05:23:48.705Z,995.93
2018-11-11T05:24:48.690Z,995.98
2018-11-11T05:25:48.676Z,995.99
2018-11-11T05:26:48.655Z,996.03
2018-11-11T05:27:48.642Z,996.03
2018-11-11T05:28:48.624Z,995.99
2018-11-11T05:29:48.608Z,995.97
2018-11-11T05:30:48.595Z,995.94
2018-11-11T05:31:48.577Z,996.01
2018-11-11T05:32:48.559Z,996.05
2018-11-11T05:33:48.543Z,996.05
2018-11-11T05:34:48.599Z,996.05
2018-11-11T05:35:48.513Z,996.08
2018-11-11T05:36:48.495Z,996.09
2018-11-11T05:37:48.477Z,996.07
2018-11-11T05:38:48.469Z,996.06
2018-11-11T05:39:48.450Z,996.07
2018-11-11T05:40:48.429Z,996.11
2018-11-11T05:41:48.412Z,996.06
2018-11-11T05:42:48.397Z,996.13
2018-11-11T05:43:48.379Z,996.15
2018-11-11T05:44:48.362Z,996.15
2018-11-11T05:45:48.350Z,996.15
2018-11-11T05:46:48.329Z,996.17
2018-11-11T05:47:48.317Z,996.21
2018-11-11T05:48:48.296Z,996.23
2018-11-11T05:49:48.281Z,996.26
2018-11-11T05:50:48.271Z,996.29
2018-11-11T05:51:48.253Z,996.25
2018-11-11T05:52:48.234Z,996.27
2018-11-11T05:53:48.218Z,996.27
2018-11-11T05:54:48.204Z,996.31
2018-11-11T05:55:48.189Z,996.3
2018-11-11T05:56:48.172Z,996.26
2018-11-11T05:57:48.156Z,996.22
2018-11-11T05:58:48.139Z,996.24
2018-11-11T05:59:48.121Z,996.23
2018-11-11T06:00:48.111Z,996.27
2018-11-11T06:01:48.093Z,996.26
2018-11-11T06:02:48.072Z,996.27
2018-11-11T06:03:48.059Z,996.29
2018-11-11T06:04:48.042Z,996.24
2018-11-11T06:05:48.025Z,996.2
2018-11-11T06:06:48.014Z,996.22
2018-11-11T06:07:47.998Z,996.23
2018-11-11T06:08:47.977Z,996.28
2018-11-11T06:09:47.974Z,996.18
2018-11-11T06:10:47.945Z,996.18
2018-11-11T06:11:47.930Z,996.2
2018-11-11T06:12:47.917Z,996.22
2018-11-11T06:13:47.896Z,996.26
2018-11-11T06:14:47.882Z,996.22
2018-11-11T06:15:47.866Z,996.27
2018-11-11T06:16:47.849Z,996.19
2018-11-11T06:17:47.837Z,996.22
2018-11-11T06:18:47.820Z,996.29
2018-11-11T06:19:47.801Z,996.27
2018-11-11T06:20:47.786Z,996.29
2018-11-11T06:21:47.773Z,996.24
2018-11-11T06:22:47.755Z,996.27
2018-11-11T06:23:47.743Z,996.26
2018-11-11T06:24:47.728Z,996.22
2018-11-11T06:25:47.703Z,996.25
2018-11-11T06:26:47.691Z,996.32
2018-11-11T06:27:47.674Z,996.34
2018-11-11T06:28:47.656Z,996.31
2018-11-11T06:29:47.651Z,996.31
2018-11-11T06:30:47.626Z,996.31
2018-11-11T06:31:47.623Z,996.26
2018-11-11T06:32:47.595Z,996.3
2018-11-11T06:33:47.582Z,996.27
2018-11-11T06:34:47.561Z,996.3
2018-11-11T06:35:47.545Z,996.33
2018-11-11T06:36:47.527Z,996.33
2018-11-11T06:37:47.516Z,996.32
2018-11-11T06:38:47.500Z,996.43
2018-11-11T06:39:47.479Z,996.4
2018-11-11T06:40:47.466Z,996.39
2018-11-11T06:41:47.451Z,996.44
2018-11-11T06:42:47.434Z,996.36
2018-11-11T06:43:47.418Z,996.41
2018-11-11T06:44:47.401Z,996.43
2018-11-11T06:45:47.384Z,996.43
2018-11-11T06:46:47.369Z,996.44
2018-11-11T06:47:47.383Z,996.47
2018-11-11T06:48:47.337Z,996.49
2018-11-11T06:49:47.322Z,996.56
2018-11-11T06:50:47.305Z,996.54
2018-11-11T06:51:47.492Z,996.49
2018-11-11T06:52:47.272Z,996.55
2018-11-11T06:53:47.262Z,996.57
2018-11-11T06:54:47.255Z,996.53
2018-11-11T06:55:47.224Z,996.53
2018-11-11T06:56:47.209Z,996.56
2018-11-11T06:57:47.195Z,996.53
2018-11-11T06:58:47.209Z,996.56
2018-11-11T06:59:47.164Z,996.5
2018-11-11T07:00:47.145Z,996.52
2018-11-11T07:01:47.129Z,996.58
2018-11-11T07:02:47.125Z,996.56
2018-11-11T07:03:47.105Z,996.55
2018-11-11T07:04:47.083Z,996.58
2018-11-11T07:05:47.071Z,996.62
2018-11-11T07:06:47.049Z,996.54
2018-11-11T07:07:47.038Z,996.51
2018-11-11T07:08:47.045Z,996.55
2018-11-11T07:09:47.002Z,996.54
2018-11-11T07:10:46.985Z,996.55
2018-11-11T07:11:46.979Z,996.55
2018-11-11T07:12:46.956Z,996.52
2018-11-11T07:13:46.945Z,996.57
2018-11-11T07:14:46.922Z,996.57
2018-11-11T07:15:46.923Z,996.51
2018-11-11T07:16:46.893Z,996.58
2018-11-11T07:17:46.875Z,996.61
2018-11-11T07:18:46.858Z,996.61
2018-11-11T07:19:46.846Z,996.63
2018-11-11T07:20:46.825Z,996.59
2018-11-11T07:21:46.811Z,996.61
2018-11-11T07:22:46.795Z,996.58
2018-11-11T07:23:46.884Z,996.61
2018-11-11T07:24:46.765Z,996.61
2018-11-11T07:25:46.753Z,996.63
2018-11-11T07:26:46.730Z,996.67
2018-11-11T07:27:46.718Z,996.72
2018-11-11T07:28:46.696Z,996.69
2018-11-11T07:29:46.682Z,996.65
2018-11-11T07:30:46.667Z,996.72
2018-11-11T07:31:46.648Z,996.73
2018-11-11T07:32:46.637Z,996.72
2018-11-11T07:33:46.623Z,996.78
2018-11-11T07:34:46.626Z,996.78
2018-11-11T07:35:46.593Z,996.84
2018-11-11T07:36:46.570Z,996.88
2018-11-11T07:37:46.551Z,996.86
2018-11-11T07:38:46.538Z,996.89
2018-11-11T07:39:46.520Z,996.92
2018-11-11T07:40:46.506Z,996.89
2018-11-11T07:41:46.487Z,996.95
2018-11-11T07:42:46.477Z,996.93
2018-11-11T07:43:46.476Z,996.98
2018-11-11T07:44:46.441Z,996.97
2018-11-11T07:45:46.429Z,996.95
2018-11-11T07:46:46.407Z,996.97
2018-11-11T07:47:46.442Z,997
2018-11-11T07:48:46.376Z,997
2018-11-11T07:49:46.359Z,997.01
2018-11-11T07:50:46.346Z,997.03
2018-11-11T07:51:46.348Z,997.02
2018-11-11T07:52:46.311Z,997.04
2018-11-11T07:53:46.299Z,997.06
2018-11-11T07:54:46.320Z,997.11
2018-11-11T07:55:46.264Z,997.07
2018-11-11T07:56:46.248Z,997.09
2018-11-11T07:57:46.237Z,997.13
2018-11-11T07:58:46.218Z,997.08
2018-11-11T07:59:46.201Z,997.08
2018-11-11T08:00:46.200Z,997.06
2018-11-11T08:01:46.261Z,997.12
2018-11-11T08:02:46.169Z,997.14
2018-11-11T08:03:46.144Z,997.19
2018-11-11T08:04:46.122Z,997.11
2018-11-11T08:05:46.109Z,997.19
2018-11-11T08:06:46.090Z,997.14
2018-11-11T08:07:46.075Z,997.17
2018-11-11T08:08:46.060Z,997.26
2018-11-11T08:09:46.059Z,997.23
2018-11-11T08:10:46.026Z,997.29
2018-11-11T08:11:46.011Z,997.27
2018-11-11T08:12:45.996Z,997.29
2018-11-11T08:13:46.038Z,997.29
2018-11-11T08:14:45.963Z,997.33
2018-11-11T08:15:45.948Z,997.32
2018-11-11T08:16:46.045Z,997.38
2018-11-11T08:17:45.917Z,997.39
2018-11-11T08:18:45.901Z,997.39
2018-11-11T08:19:45.887Z,997.38
2018-11-11T08:20:45.870Z,997.32
2018-11-11T08:21:45.861Z,997.37
2018-11-11T08:22:45.838Z,997.36
2018-11-11T08:23:45.822Z,997.32
2018-11-11T08:24:45.810Z,997.37
2018-11-11T08:25:45.791Z,997.36
2018-11-11T08:26:45.774Z,997.4
2018-11-11T08:27:45.769Z,997.39
2018-11-11T08:28:45.744Z,997.39
2018-11-11T08:29:45.727Z,997.37
2018-11-11T08:30:45.713Z,997.42
2018-11-11T08:31:45.719Z,997.48
2018-11-11T08:32:45.681Z,997.5
2018-11-11T08:33:45.670Z,997.46
2018-11-11T08:34:45.653Z,997.46
2018-11-11T08:35:45.638Z,997.5
2018-11-11T08:36:45.620Z,997.5
2018-11-11T08:37:45.604Z,997.49
2018-11-11T08:38:45.592Z,997.51
2018-11-11T08:39:45.582Z,997.51
2018-11-11T08:40:45.559Z,997.56
2018-11-11T08:41:45.604Z,997.5
2018-11-11T08:42:45.529Z,997.48
2018-11-11T08:43:45.527Z,997.71
2018-11-11T08:44:45.500Z,997.54
2018-11-11T08:45:45.481Z,997.6
2018-11-11T08:46:45.471Z,997.6
2018-11-11T08:47:45.453Z,997.57
2018-11-11T08:48:45.486Z,997.6
2018-11-11T08:49:45.423Z,997.57
2018-11-11T08:50:45.414Z,997.55
2018-11-11T08:51:45.594Z,997.59
2018-11-11T08:52:45.377Z,997.56
2018-11-11T08:53:45.363Z,997.69
2018-11-11T08:54:45.355Z,997.56
2018-11-11T08:55:45.339Z,997.55
2018-11-11T08:56:45.320Z,997.52
2018-11-11T08:57:45.330Z,997.59
2018-11-11T08:58:45.289Z,997.58
2018-11-11T08:59:45.272Z,997.61
2018-11-11T09:00:45.257Z,997.6
2018-11-11T09:01:45.245Z,997.59
2018-11-11T09:02:45.235Z,997.6
2018-11-11T09:03:45.216Z,997.6
2018-11-11T09:04:45.265Z,997.52
2018-11-11T09:05:45.187Z,997.63
2018-11-11T09:06:45.169Z,997.67
2018-11-11T09:07:45.154Z,997.68
2018-11-11T09:08:45.145Z,997.71
2018-11-11T09:09:45.124Z,997.7
2018-11-11T09:10:45.112Z,997.64
2018-11-11T09:11:45.095Z,997.71
2018-11-11T09:12:45.080Z,997.72
2018-11-11T09:13:45.066Z,997.8
2018-11-11T09:14:45.050Z,997.75
2018-11-11T09:15:45.036Z,997.82
2018-11-11T09:16:45.020Z,997.84
2018-11-11T09:17:45.007Z,997.84
2018-11-11T09:18:44.994Z,997.81
2018-11-11T09:19:45.028Z,997.84
2018-11-11T09:20:44.963Z,997.87
2018-11-11T09:21:44.947Z,997.91
2018-11-11T09:22:44.932Z,997.92
2018-11-11T09:23:44.998Z,997.9
2018-11-11T09:24:44.954Z,997.91
2018-11-11T09:25:44.889Z,997.9
2018-11-11T09:26:44.872Z,997.92
2018-11-11T09:27:44.855Z,997.95
2018-11-11T09:28:44.842Z,997.97
2018-11-11T09:29:44.903Z,997.98
2018-11-11T09:30:44.815Z,997.97
2018-11-11T09:31:44.797Z,998
2018-11-11T09:32:44.785Z,997.96
2018-11-11T09:33:44.769Z,997.99
2018-11-11T09:34:44.751Z,998.02
2018-11-11T09:35:44.742Z,997.98
2018-11-11T09:36:44.738Z,998.04
2018-11-11T09:37:44.711Z,998.05
2018-11-11T09:38:44.693Z,997.99
2018-11-11T09:39:44.727Z,998.09
2018-11-11T09:40:44.736Z,998.05
2018-11-11T09:41:44.652Z,998.09
2018-11-11T09:42:44.634Z,998.02
2018-11-11T09:43:44.622Z,998.04
2018-11-11T09:44:44.603Z,998.09
2018-11-11T09:45:44.587Z,998.09
2018-11-11T09:46:44.786Z,998.12
2018-11-11T09:47:44.640Z,998.08
2018-11-11T09:48:44.546Z,998.17
2018-11-11T09:49:44.531Z,998.1
2018-11-11T09:50:44.520Z,998.2
2018-11-11T09:51:44.503Z,998.18
2018-11-11T09:52:44.589Z,998.19
2018-11-11T09:53:44.473Z,998.16
2018-11-11T09:54:44.458Z,998.15
2018-11-11T09:55:44.448Z,998.25
2018-11-11T09:56:44.437Z,998.21
2018-11-11T09:57:44.415Z,998.09
2018-11-11T09:58:44.548Z,998.13
2018-11-11T09:59:44.450Z,998.08
2018-11-11T10:00:44.375Z,998.01
2018-11-11T10:01:44.357Z,998.01
2018-11-11T10:02:44.344Z,998.05
2018-11-11T10:03:44.338Z,998.06
2018-11-11T10:04:44.351Z,998.03
2018-11-11T10:05:44.300Z,998.02
2018-11-11T10:06:44.422Z,997.9
2018-11-11T10:07:44.334Z,997.98
2018-11-11T10:08:44.283Z,997.98
2018-11-11T10:09:44.252Z,997.91
2018-11-11T10:10:44.432Z,997.94
2018-11-11T10:11:44.338Z,997.92
2018-11-11T10:12:44.297Z,998.04
2018-11-11T10:13:44.191Z,998
2018-11-11T10:14:44.220Z,998.02
2018-11-11T10:15:44.173Z,998.09
2018-11-11T10:16:44.149Z,997.99
2018-11-11T10:17:44.132Z,998.05
2018-11-11T10:18:44.123Z,998.15
2018-11-11T10:19:44.107Z,998.02
2018-11-11T10:20:44.109Z,998.06
2018-11-11T10:21:44.099Z,998.11
2018-11-11T10:22:44.081Z,998.09
2018-11-11T10:23:44.053Z,998.21
2018-11-11T10:24:44.041Z,998.15
2018-11-11T10:25:44.030Z,998.26
2018-11-11T10:26:44.013Z,998.22
2018-11-11T10:27:43.999Z,998.41
2018-11-11T10:28:43.988Z,998.2
2018-11-11T10:29:44.044Z,998.16
2018-11-11T10:30:43.962Z,998.21
2018-11-11T10:31:43.961Z,998.14
2018-11-11T10:32:43.950Z,998.17
2018-11-11T10:33:44.042Z,998.14
2018-11-11T10:34:43.909Z,998.09
2018-11-11T10:35:43.900Z,998.03
2018-11-11T10:36:43.886Z,998
2018-11-11T10:37:43.872Z,997.98
2018-11-11T10:38:43.859Z,997.99
2018-11-11T10:39:43.848Z,998.01
2018-11-11T10:40:43.833Z,998
2018-11-11T10:41:43.822Z,998.07
2018-11-11T10:42:43.807Z,998.05
2018-11-11T10:43:43.794Z,998.01
2018-11-11T10:44:43.781Z,997.99
2018-11-11T10:45:43.766Z,998
2018-11-11T10:46:43.753Z,998.1
2018-11-11T10:47:43.740Z,998.12
2018-11-11T10:48:43.732Z,998.14
2018-11-11T10:49:43.712Z,998.04
2018-11-11T10:50:43.708Z,998.1
2018-11-11T10:51:43.901Z,998.19
2018-11-11T10:52:43.673Z,998.12
2018-11-11T10:53:43.693Z,998.2
2018-11-11T10:54:43.643Z,998.16
2018-11-11T10:55:43.632Z,998.15
2018-11-11T10:56:43.615Z,998.16
2018-11-11T10:57:43.607Z,998.16
2018-11-11T10:58:43.588Z,998.15
2018-11-11T10:59:43.572Z,998.11
2018-11-11T11:00:43.557Z,998.15
2018-11-11T11:01:43.546Z,998.15
2018-11-11T11:02:43.531Z,998.17
2018-11-11T11:03:43.516Z,998.15
2018-11-11T11:04:43.505Z,998.19
2018-11-11T11:05:43.493Z,998.24
2018-11-11T11:06:43.474Z,998.16
2018-11-11T11:07:43.459Z,998.28
2018-11-11T11:08:43.443Z,998.41
2018-11-11T11:09:43.465Z,998.37
2018-11-11T11:10:43.448Z,998.39
2018-11-11T11:11:43.407Z,998.46
2018-11-11T11:12:43.610Z,998.49
2018-11-11T11:13:43.451Z,998.49
2018-11-11T11:14:43.360Z,998.52
2018-11-11T11:15:43.388Z,998.52
2018-11-11T11:16:43.346Z,998.59
2018-11-11T11:17:43.362Z,998.56
2018-11-11T11:18:43.326Z,998.6
2018-11-11T11:19:43.290Z,998.57
2018-11-11T11:20:43.332Z,998.67
2018-11-11T11:21:43.258Z,998.63
2018-11-11T11:22:43.265Z,998.7
2018-11-11T11:23:43.237Z,998.67
2018-11-11T11:24:43.220Z,998.58
2018-11-11T11:25:43.287Z,998.79
2018-11-11T11:26:43.193Z,998.65
2018-11-11T11:27:43.174Z,998.71
2018-11-11T11:28:43.162Z,998.69
2018-11-11T11:29:43.144Z,998.8
2018-11-11T11:30:43.175Z,998.77
2018-11-11T11:31:43.375Z,998.8
2018-11-11T11:32:43.106Z,998.77
2018-11-11T11:33:43.097Z,998.87
2018-11-11T11:34:43.080Z,998.78
2018-11-11T11:35:43.171Z,998.81
2018-11-11T11:36:43.060Z,998.79
2018-11-11T11:37:43.042Z,998.73
2018-11-11T11:38:43.020Z,998.79
2018-11-11T11:39:43.006Z,998.76
2018-11-11T11:40:43.000Z,998.81
2018-11-11T11:41:42.981Z,998.85
2018-11-11T11:42:42.965Z,998.86
2018-11-11T11:43:42.952Z,998.79
2018-11-11T11:44:42.949Z,998.88
2018-11-11T11:45:42.927Z,998.83
2018-11-11T11:46:42.910Z,998.84
2018-11-11T11:47:42.896Z,998.85
2018-11-11T11:48:42.888Z,998.94
2018-11-11T11:49:42.898Z,998.9
2018-11-11T11:50:42.859Z,998.9
2018-11-11T11:51:42.838Z,998.91
2018-11-11T11:52:42.838Z,998.97
2018-11-11T11:53:42.810Z,998.94
2018-11-11T11:54:42.798Z,999.02
2018-11-11T11:55:42.781Z,998.94
2018-11-11T11:56:42.769Z,999.02
2018-11-11T11:57:42.753Z,998.88
2018-11-11T11:58:42.737Z,998.96
2018-11-11T11:59:42.732Z,998.9
2018-11-11T12:00:42.713Z,999
2018-11-11T12:01:42.697Z,999.02
2018-11-11T12:02:42.683Z,998.96
2018-11-11T12:03:42.675Z,998.94
2018-11-11T12:04:42.658Z,998.89
2018-11-11T12:05:42.644Z,998.88
2018-11-11T12:06:42.632Z,998.98
2018-11-11T12:07:42.613Z,998.82
2018-11-11T12:08:42.692Z,998.79
2018-11-11T12:09:42.592Z,998.82
2018-11-11T12:10:42.582Z,998.8
2018-11-11T12:11:42.568Z,998.85
2018-11-11T12:12:42.550Z,998.82
2018-11-11T12:13:42.545Z,998.87
2018-11-11T12:14:42.528Z,998.82
2018-11-11T12:15:42.517Z,998.9
2018-11-11T12:16:42.535Z,998.9
2018-11-11T12:17:42.484Z,998.9
2018-11-11T12:18:42.472Z,998.89
2018-11-11T12:19:42.477Z,998.85
2018-11-11T12:20:42.459Z,998.81
2018-11-11T12:21:42.433Z,998.8
2018-11-11T12:22:42.423Z,998.93
2018-11-11T12:23:42.413Z,998.96
2018-11-11T12:24:42.393Z,998.82
2018-11-11T12:25:42.379Z,998.81
2018-11-11T12:26:42.368Z,998.78
2018-11-11T12:27:42.353Z,998.87
2018-11-11T12:28:42.343Z,998.88
2018-11-11T12:29:42.332Z,998.89
2018-11-11T12:30:42.406Z,998.84
2018-11-11T12:31:42.501Z,998.81